CheckWX is a tool to help pilots better visualize weather data.  It is not intended as a substitute for an official pre-flight weather briefing.

21:37:29 UTC

KTCC TAF
Tucumcari Municipal Airport
Tucumcari, New Mexico, USA
KTCC 201720Z 2018/2118 VRB06KT P6SM SKC FM202000 24006KT P6SM BKN200 FM211600 22011KT P6SM BKN100

Mar-20@
18:00 UTC

Mar-20 @ 18:00 UTC

Mar-20@
20:00 UTC

Mar-20 @ 20:00 UTC

KTCC 201720Z 2018/2118 VRB06KT P6SM SKC

Expired

Wind
  • Variable at 6 KTS
Cloud Levels
  • Clear skies

Mar-20@
20:00 UTC

Mar-20 @ 20:00 UTC

Mar-21@
16:00 UTC

Mar-21 @ 16:00 UTC

FM202000 24006KT P6SM BKN200

From

From Standard forecast or significant change

Wind
  • 240° at 6 KTS
Cloud Levels
  • Broken at 20,000' AGL

Mar-21@
16:00 UTC

Mar-21 @ 16:00 UTC

Mar-21@
18:00 UTC

Mar-21 @ 18:00 UTC

FM211600 22011KT P6SM BKN100

From

From Standard forecast or significant change

Wind
  • 220° at 11 KTS
Cloud Levels
  • Broken at 10,000' AGL